Time;durP1;ratioP1;P1;durP2;ratioP2;P2;SDS_P1;SDS_P2;PMS_P1;PMS_P2;Temp;Humidity;BMP_temperature;BMP_pressure;BME280_temperature;BME280_humidity;BME280_pressure;Samples;Min_cycle;Max_cycle;Signal;HPM_P1;HPM_P2
2021/01/25 00:01:47;;;;;;;9.30;4.97;;;;;;;6.86;74.04;99501.61;1718810;82;21043;-68
2021/01/25 00:04:15;;;;;;;19.23;5.47;;;;;;;6.88;74.08;99502.47;1713437;83;21518;-67
2021/01/25 00:06:46;;;;;;;17.60;5.60;;;;;;;6.93;74.19;99508.94;1713094;83;21043;-65
2021/01/25 00:09:15;;;;;;;11.75;5.28;;;;;;;6.94;74.36;99506.33;1714046;83;21221;-67
2021/01/25 00:11:44;;;;;;;12.45;6.45;;;;;;;6.97;74.78;99504.10;1715879;82;21011;-65
2021/01/25 00:14:13;;;;;;;18.00;5.42;;;;;;;7.08;74.61;99507.89;1713002;82;21111;-67
2021/01/25 00:16:42;;;;;;;15.45;5.25;;;;;;;7.17;74.43;99500.39;1713284;83;21074;-67
2021/01/25 00:19:10;;;;;;;17.73;5.50;;;;;;;7.19;74.37;99501.24;1716011;83;21063;-65
2021/01/25 00:21:38;;;;;;;11.85;5.58;;;;;;;7.22;74.15;99501.20;1716848;83;21550;-65
2021/01/25 00:24:07;;;;;;;13.28;5.70;;;;;;;7.25;73.91;99495.47;1713269;83;21102;-65
2021/01/25 00:26:34;;;;;;;9.98;4.85;;;;;;;7.24;73.84;99493.73;1712165;83;21036;-67
2021/01/25 00:29:02;;;;;;;11.53;5.65;;;;;;;7.22;73.75;99495.51;1718805;83;21237;-65
2021/01/25 00:31:30;;;;;;;7.97;4.42;;;;;;;7.16;73.95;99499.97;1715034;83;21051;-65
2021/01/25 00:33:58;;;;;;;7.17;4.30;;;;;;;7.18;73.87;99505.59;1718892;83;21123;-67
2021/01/25 00:36:26;;;;;;;11.88;4.60;;;;;;;7.18;73.93;99502.12;1717367;82;21138;-68
2021/01/25 00:38:53;;;;;;;6.62;3.90;;;;;;;7.14;74.12;99504.78;1724629;83;21126;-67
2021/01/25 00:41:21;;;;;;;10.45;3.72;;;;;;;7.14;74.17;99500.85;1720255;83;21079;-68
2021/01/25 00:43:49;;;;;;;6.90;3.60;;;;;;;7.16;74.19;99488.19;1717125;83;21082;-65
2021/01/25 00:46:16;;;;;;;7.20;2.47;;;;;;;7.16;74.23;99490.81;1716130;83;21140;-65
2021/01/25 00:48:44;;;;;;;11.90;2.83;;;;;;;7.19;74.30;99485.54;1662311;85;21087;-65
2021/01/25 00:51:11;;;;;;;5.92;2.20;;;;;;;7.18;74.35;99480.73;1696549;84;21127;-65
2021/01/25 00:53:38;;;;;;;9.38;3.37;;;;;;;7.18;74.43;99482.50;1697095;83;21118;-67
2021/01/25 00:56:06;;;;;;;10.50;2.98;;;;;;;7.20;74.37;99472.88;1719419;83;21104;-67
2021/01/25 00:58:34;;;;;;;4.05;2.50;;;;;;;7.18;74.41;99466.33;1725036;82;21067;-65
2021/01/25 01:01:02;;;;;;;7.45;2.62;;;;;;;7.20;74.48;99458.48;1718200;83;21134;-67
2021/01/25 01:03:30;;;;;;;6.33;3.37;;;;;;;7.21;74.52;99454.52;1715256;83;21118;-65
2021/01/25 01:05:58;;;;;;;5.83;3.42;;;;;;;7.22;74.67;99452.33;1722878;83;21594;-67
2021/01/25 01:08:26;;;;;;;6.87;3.90;;;;;;;7.20;74.81;99451.48;1714499;83;21078;-65
2021/01/25 01:10:53;;;;;;;6.90;3.65;;;;;;;7.22;74.89;99451.02;1679561;85;21092;-66
2021/01/25 01:13:20;;;;;;;7.30;3.80;;;;;;;7.26;74.92;99446.63;1708454;83;21594;-65
2021/01/25 01:15:48;;;;;;;10.10;4.33;;;;;;;7.27;75.04;99440.05;1679617;85;21197;-65
2021/01/25 01:18:15;;;;;;;7.70;3.92;;;;;;;7.28;75.11;99442.23;1687582;85;21097;-67
2021/01/25 01:20:43;;;;;;;12.15;3.75;;;;;;;7.33;75.18;99451.32;1725229;82;21609;-65
2021/01/25 01:23:10;;;;;;;18.57;4.12;;;;;;;7.34;74.97;99444.73;1718087;83;21594;-65
2021/01/25 01:25:38;;;;;;;12.88;4.20;;;;;;;7.36;75.12;99442.12;1725415;83;21080;-65
2021/01/25 01:28:06;;;;;;;9.18;3.33;;;;;;;7.43;74.87;99447.23;1719321;83;21089;-66
2021/01/25 01:30:33;;;;;;;10.08;3.67;;;;;;;7.27;75.55;99446.59;1717020;83;21132;-68
2021/01/25 01:33:01;;;;;;;5.50;2.65;;;;;;;7.30;75.44;99437.81;1720172;83;21167;-68
2021/01/25 01:35:30;;;;;;;25.00;3.60;;;;;;;7.34;75.19;99442.58;1686845;83;21130;-65
2021/01/25 01:38:00;;;;;;;21.07;3.27;;;;;;;7.42;75.00;99437.65;1715523;83;21193;-66
2021/01/25 01:40:27;;;;;;;5.87;2.60;;;;;;;7.32;75.50;99426.88;1709403;83;21145;-67
2021/01/25 01:42:54;;;;;;;8.45;2.72;;;;;;;7.22;75.95;99415.69;1719587;83;21024;-68
2021/01/25 01:45:23;;;;;;;12.40;3.42;;;;;;;7.24;76.01;99408.67;1718945;83;21095;-68
2021/01/25 01:47:50;;;;;;;5.20;3.05;;;;;;;7.28;76.02;99412.13;1713090;84;21047;-65
2021/01/25 01:50:18;;;;;;;5.12;2.95;;;;;;;7.38;75.79;99403.23;1712190;83;21126;-68
2021/01/25 01:52:47;;;;;;;6.65;2.95;;;;;;;7.42;75.66;99407.54;1718992;83;21063;-68
2021/01/25 01:55:14;;;;;;;5.15;2.70;;;;;;;7.46;75.44;99401.83;1719046;83;21131;-65
2021/01/25 01:57:42;;;;;;;4.58;2.02;;;;;;;7.44;75.31;99407.08;1712626;83;21684;-65
2021/01/25 02:00:13;;;;;;;11.35;2.20;;;;;;;7.44;75.07;99408.84;1710102;82;21435;-68
2021/01/25 02:02:41;;;;;;;6.37;1.98;;;;;;;7.42;75.03;99398.84;1713085;84;21079;-68
2021/01/25 02:05:10;;;;;;;14.80;2.83;;;;;;;7.34;75.26;99396.77;1713020;84;21237;-68
2021/01/25 02:07:38;;;;;;;4.92;2.35;;;;;;;7.37;75.34;99389.72;1709030;83;21031;-66
2021/01/25 02:10:09;;;;;;;7.97;2.77;;;;;;;7.31;75.61;99381.11;1690197;85;21145;-66
2021/01/25 02:12:37;;;;;;;12.28;3.12;;;;;;;7.27;75.80;99375.92;1690370;85;21040;-68
2021/01/25 02:15:06;;;;;;;3.92;2.05;;;;;;;7.32;75.67;99373.67;1693820;84;21286;-66
2021/01/25 02:17:34;;;;;;;12.33;3.35;;;;;;;7.29;75.91;99367.59;1710868;83;21020;-68
2021/01/25 02:20:09;;;;;;;9.88;2.90;;;;;;;7.33;75.81;99363.63;1718913;82;21311;-65
2021/01/25 02:22:49;;;;;;;5.60;2.77;;;;;;;7.37;75.72;99364.85;1719223;83;21594;-68
2021/01/25 02:26:00;;;;;;;7.78;3.33;;;;;;;7.38;75.82;99358.73;1666802;85;21132;-66
2021/01/25 02:28:29;;;;;;;7.72;4.15;;;;;;;7.42;76.14;99362.19;1719138;83;21582;-66
2021/01/25 02:31:02;;;;;;;12.90;4.47;;;;;;;7.57;75.87;99355.37;1719205;83;21134;-68
2021/01/25 02:33:31;;;;;;;13.85;5.78;;;;;;;7.64;75.90;99358.77;1708944;83;21612;-65
2021/01/25 02:35:59;;;;;;;20.37;5.65;;;;;;;7.69;75.88;99370.04;1713848;83;21091;-66
2021/01/25 02:38:26;;;;;;;17.27;4.97;;;;;;;7.75;76.02;99370.38;1725167;83;21127;-65
2021/01/25 02:40:54;;;;;;;21.05;5.33;;;;;;;7.80;75.96;99373.78;1725112;83;21114;-66
2021/01/25 02:43:22;;;;;;;15.13;4.97;;;;;;;7.85;76.12;99380.23;1719831;83;22848;-65
2021/01/25 02:45:49;;;;;;;15.13;4.25;;;;;;;7.91;75.99;99378.83;1720523;83;21110;-68
2021/01/25 02:48:16;;;;;;;15.68;4.80;;;;;;;7.97;75.98;99374.80;1725128;83;21111;-66
2021/01/25 02:50:51;;;;;;;12.88;5.25;;;;;;;8.01;76.00;99368.61;1725219;83;21390;-66
2021/01/25 02:53:19;;;;;;;13.18;3.80;;;;;;;8.06;75.96;99365.05;1723216;83;21066;-66
2021/01/25 02:55:47;;;;;;;14.60;4.28;;;;;;;8.11;75.83;99354.88;1725676;83;21550;-68
2021/01/25 02:58:15;;;;;;;17.40;3.92;;;;;;;8.17;75.70;99350.84;1725358;83;21003;-65
2021/01/25 03:00:42;;;;;;;14.63;4.85;;;;;;;8.16;75.55;99350.88;1725050;83;21295;-68
2021/01/25 03:03:10;;;;;;;12.37;3.52;;;;;;;8.16;75.58;99345.17;1709370;83;21052;-68
2021/01/25 03:05:37;;;;;;;15.30;3.98;;;;;;;8.20;75.59;99349.91;1688512;84;21128;-65
2021/01/25 03:08:06;;;;;;;18.32;4.22;;;;;;;8.21;75.45;99350.78;1725139;83;21131;-68
2021/01/25 03:10:34;;;;;;;12.98;3.92;;;;;;;8.19;75.48;99349.05;1717678;83;21115;-65
2021/01/25 03:13:03;;;;;;;11.68;3.80;;;;;;;8.19;75.47;99346.86;1684162;85;21046;-68
2021/01/25 03:15:35;;;;;;;16.45;4.30;;;;;;;8.17;75.42;99336.85;1725433;82;21127;-68
2021/01/25 03:18:04;;;;;;;20.30;4.55;;;;;;;8.14;75.21;99318.13;1704697;83;21042;-66
2021/01/25 03:20:31;;;;;;;17.92;3.98;;;;;;;8.09;75.15;99321.75;1714704;83;21099;-66
2021/01/25 03:22:59;;;;;;;17.02;4.40;;;;;;;8.07;75.28;99322.22;1724906;83;21205;-66
2021/01/25 03:25:27;;;;;;;15.00;3.75;;;;;;;8.07;75.45;99320.45;1725048;83;21145;-66
2021/01/25 03:27:54;;;;;;;15.10;3.92;;;;;;;8.11;75.51;99326.05;1724565;83;21048;-66
2021/01/25 03:30:22;;;;;;;11.85;3.85;;;;;;;8.14;75.33;99324.69;1716126;83;21165;-66
2021/01/25 03:32:50;;;;;;;20.97;5.10;;;;;;;8.14;75.26;99314.20;1718049;83;21083;-67
2021/01/25 03:35:18;;;;;;;13.95;3.62;;;;;;;8.13;75.21;99299.83;1716870;83;21106;-68
2021/01/25 03:37:46;;;;;;;17.00;3.92;;;;;;;8.11;75.29;99290.66;1716685;83;21039;-66
2021/01/25 03:40:14;;;;;;;16.40;4.53;;;;;;;8.15;75.10;99288.41;1719631;83;21568;-65
2021/01/25 03:42:42;;;;;;;18.70;3.45;;;;;;;8.14;75.01;99290.61;1724999;83;21511;-68
2021/01/25 03:45:11;;;;;;;14.70;3.83;;;;;;;8.11;75.04;99293.75;1688205;85;21515;-68
2021/01/25 03:47:38;;;;;;;13.78;3.95;;;;;;;8.10;75.20;99294.64;1722178;83;21000;-68
2021/01/25 03:50:07;;;;;;;21.90;5.20;;;;;;;8.03;75.43;99296.06;1723144;83;21115;-67
2021/01/25 03:52:35;;;;;;;18.85;4.22;;;;;;;8.07;75.45;99292.08;1725079;83;21048;-67
2021/01/25 03:55:04;;;;;;;21.85;4.92;;;;;;;8.09;75.52;99291.14;1724995;83;21103;-66
2021/01/25 03:57:31;;;;;;;16.60;4.45;;;;;;;8.12;75.41;99287.16;1716335;83;21059;-66
2021/01/25 03:59:59;;;;;;;13.58;4.33;;;;;;;8.13;75.46;99282.33;1725027;83;21126;-67
2021/01/25 04:02:27;;;;;;;18.77;4.37;;;;;;;8.15;75.33;99283.16;1725292;83;21463;-67
2021/01/25 04:04:54;;;;;;;11.83;4.10;;;;;;;8.16;75.36;99277.03;1725218;83;21274;-68
2021/01/25 04:07:22;;;;;;;14.90;4.12;;;;;;;8.14;75.29;99284.06;1722919;83;21067;-68
2021/01/25 04:09:49;;;;;;;13.93;4.92;;;;;;;8.14;75.30;99281.44;1725079;83;21459;-67
2021/01/25 04:12:19;;;;;;;18.95;4.53;;;;;;;8.18;75.07;99283.53;1725036;82;21051;-68
2021/01/25 04:14:46;;;;;;;18.98;4.60;;;;;;;8.18;75.02;99274.36;1724745;83;21332;-66
2021/01/25 04:17:14;;;;;;;21.82;4.37;;;;;;;8.13;75.19;99270.53;1720603;83;21091;-68
2021/01/25 04:19:42;;;;;;;13.75;4.60;;;;;;;8.12;75.15;99258.78;1725098;83;21107;-68
2021/01/25 04:22:09;;;;;;;14.73;4.17;;;;;;;8.11;75.35;99263.14;1725098;83;21063;-67
2021/01/25 04:24:37;;;;;;;23.07;5.22;;;;;;;8.14;75.20;99261.78;1717956;83;21158;-67
2021/01/25 04:27:04;;;;;;;17.92;4.40;;;;;;;8.10;75.16;99266.66;1716916;83;21035;-67
2021/01/25 04:29:32;;;;;;;21.17;4.40;;;;;;;8.09;75.32;99262.77;1716863;83;21132;-68
2021/01/25 04:32:01;;;;;;;13.65;4.00;;;;;;;8.11;75.47;99258.37;1717175;83;21047;-68
2021/01/25 04:34:28;;;;;;;15.68;4.72;;;;;;;8.12;75.61;99260.09;1718430;83;21237;-66
2021/01/25 04:36:56;;;;;;;13.95;4.37;;;;;;;8.18;75.50;99255.58;1721098;83;21095;-68
2021/01/25 04:39:24;;;;;;;21.87;4.92;;;;;;;8.21;75.65;99253.33;1718806;83;21151;-67
2021/01/25 04:41:51;;;;;;;20.48;4.95;;;;;;;8.25;75.64;99252.84;1717137;83;21012;-67
2021/01/25 04:44:19;;;;;;;21.97;4.37;;;;;;;8.27;75.74;99250.58;1711778;83;21135;-67
2021/01/25 04:46:47;;;;;;;20.27;4.72;;;;;;;8.31;75.77;99250.09;1713163;83;21446;-68
2021/01/25 04:49:14;;;;;;;15.50;4.50;;;;;;;8.37;75.79;99242.53;1713055;84;21118;-67
2021/01/25 04:51:42;;;;;;;17.90;4.47;;;;;;;8.42;75.73;99238.90;1709124;83;21118;-67
2021/01/25 04:54:10;;;;;;;20.30;4.92;;;;;;;8.43;75.67;99241.09;1713015;83;21529;-67
2021/01/25 04:56:37;;;;;;;17.42;5.00;;;;;;;8.47;75.43;99244.91;1713256;84;21498;-67
2021/01/25 04:59:05;;;;;;;22.15;4.87;;;;;;;8.40;75.65;99236.76;1713122;84;21648;-67
2021/01/25 05:01:32;;;;;;;20.35;4.33;;;;;;;8.45;75.63;99241.92;1709391;83;21478;-67
2021/01/25 05:04:00;;;;;;;17.42;4.87;;;;;;;8.38;76.04;99237.27;1713118;83;21491;-67
2021/01/25 05:06:28;;;;;;;19.10;4.28;;;;;;;8.43;76.01;99231.91;1713122;84;21136;-68
2021/01/25 05:08:55;;;;;;;19.55;5.10;;;;;;;8.46;75.95;99230.08;1712991;83;21487;-68
2021/01/25 05:11:22;;;;;;;17.50;5.67;;;;;;;8.56;75.73;99227.28;1715872;83;21107;-67
2021/01/25 05:13:54;;;;;;;18.48;5.10;;;;;;;8.52;76.11;99222.57;1742873;82;21047;-67
2021/01/25 05:16:21;;;;;;;23.15;5.60;;;;;;;8.61;75.74;99211.00;1742338;82;21575;-68
2021/01/25 05:18:57;;;;;;;23.83;4.58;;;;;;;8.63;75.70;99207.89;1737333;82;21027;-68
2021/01/25 05:21:44;;;;;;;21.80;5.25;;;;;;;8.60;75.94;99206.66;1734730;82;21581;-68
2021/01/25 05:24:13;;;;;;;16.97;5.47;;;;;;;8.69;75.70;99207.76;1744104;82;21031;-68
2021/01/25 05:26:59;;;;;;;27.05;6.25;;;;;;;8.66;76.36;99214.38;1744086;82;21431;-67
2021/01/25 05:29:28;;;;;;;21.45;6.87;;;;;;;8.71;76.33;99215.14;1731461;82;21130;-67
2021/01/25 05:31:56;;;;;;;20.30;7.20;;;;;;;8.71;76.39;99207.27;1744238;82;21019;-67
2021/01/25 05:34:24;;;;;;;28.00;7.05;;;;;;;8.81;76.37;99196.56;1741804;82;21126;-67
2021/01/25 05:36:52;;;;;;;17.60;6.37;;;;;;;8.79;76.28;99196.59;1695381;83;21256;-69
2021/01/25 05:39:19;;;;;;;15.58;5.95;;;;;;;8.83;76.33;99199.55;1747916;82;21612;-68
2021/01/25 05:41:55;;;;;;;23.38;7.65;;;;;;;8.88;76.62;99203.36;1754826;82;21200;-69
2021/01/25 05:44:23;;;;;;;20.57;7.55;;;;;;;8.96;76.60;99209.30;1747129;82;21081;-68
2021/01/25 05:46:51;;;;;;;24.87;7.75;;;;;;;9.05;76.74;99205.60;1753290;82;21478;-68
2021/01/25 05:49:25;;;;;;;13.38;6.12;;;;;;;9.12;76.50;99195.80;1735801;82;21560;-68
2021/01/25 05:51:56;;;;;;;30.25;8.60;;;;;;;9.15;76.53;99196.57;1746878;82;21058;-68
2021/01/25 05:54:24;;;;;;;22.37;7.40;;;;;;;9.16;76.96;99200.08;1742726;82;21094;-68
2021/01/25 05:56:52;;;;;;;19.35;6.53;;;;;;;9.29;76.85;99193.59;1744169;81;21023;-68
2021/01/25 05:59:20;;;;;;;16.67;6.75;;;;;;;9.34;76.98;99196.11;1739232;82;21105;-67
2021/01/25 06:01:48;;;;;;;22.15;8.03;;;;;;;9.38;77.00;99192.03;1744798;82;21497;-68
2021/01/25 06:04:21;;;;;;;29.37;8.43;;;;;;;9.53;76.65;99185.97;1703090;83;21082;-69
2021/01/25 06:07:05;;;;;;;17.37;6.55;;;;;;;9.59;76.50;99188.44;1744248;82;21608;-69
2021/01/25 06:09:55;;;;;;;15.85;5.45;;;;;;;9.66;76.36;99189.12;1723661;83;21097;-68
2021/01/25 06:12:31;;;;;;;23.20;7.25;;;;;;;9.66;76.11;99186.05;1668183;85;21052;-68
2021/01/25 06:15:04;;;;;;;17.48;7.00;;;;;;;9.66;76.13;99177.30;1732490;83;21144;-69
2021/01/25 06:17:33;;;;;;;23.77;6.55;;;;;;;9.62;76.33;99179.59;1733397;82;21023;-69
2021/01/25 06:20:04;;;;;;;21.95;6.08;;;;;;;9.69;76.37;99180.31;1724526;83;21086;-68
2021/01/25 06:22:34;;;;;;;12.47;5.22;;;;;;;9.70;76.43;99178.94;1700805;83;21046;-69
2021/01/25 06:25:02;;;;;;;22.22;6.40;;;;;;;9.79;76.15;99177.80;1720717;83;21164;-69
2021/01/25 06:27:31;;;;;;;19.80;6.90;;;;;;;9.79;76.29;99173.42;1689885;84;21120;-69
2021/01/25 06:30:00;;;;;;;23.75;6.90;;;;;;;9.92;76.06;99174.40;1688272;84;21152;-69
2021/01/25 06:32:38;;;;;;;20.40;6.72;;;;;;;10.00;75.73;99180.27;1728549;83;21034;-68
2021/01/25 06:35:08;;;;;;;19.98;6.25;;;;;;;10.11;75.47;99163.73;1696987;83;21541;-68
2021/01/25 06:37:37;;;;;;;16.40;6.33;;;;;;;10.11;75.35;99161.58;1717601;82;21051;-68
2021/01/25 06:40:09;;;;;;;18.20;5.83;;;;;;;10.21;75.32;99168.25;1660218;83;21285;-68
2021/01/25 06:42:39;;;;;;;20.10;5.80;;;;;;;10.29;75.07;99167.16;1679373;85;21080;-69
2021/01/25 06:45:10;;;;;;;20.37;6.70;;;;;;;10.32;74.95;99161.38;1709352;83;21107;-69
2021/01/25 06:47:38;;;;;;;20.17;7.20;;;;;;;10.38;75.12;99155.90;1681603;85;21226;-68
2021/01/25 06:50:07;;;;;;;20.68;5.83;;;;;;;10.44;75.09;99155.33;1660696;85;21121;-68
2021/01/25 06:52:36;;;;;;;16.20;5.72;;;;;;;10.52;74.80;99150.70;1693349;83;21374;-69
2021/01/25 06:55:06;;;;;;;18.15;5.40;;;;;;;10.60;74.64;99144.74;1717007;83;21134;-68
2021/01/25 06:57:36;;;;;;;15.75;6.00;;;;;;;10.70;74.49;99138.72;1716237;83;21482;-68
2021/01/25 07:00:14;;;;;;;16.70;6.50;;;;;;;10.71;74.13;99135.17;1726889;82;21314;-70
2021/01/25 07:02:55;;;;;;;15.88;5.80;;;;;;;10.84;73.90;99125.97;1742653;82;21577;-69
2021/01/25 07:05:28;;;;;;;14.20;5.25;;;;;;;10.93;73.75;99137.11;1719679;82;21139;-68
2021/01/25 07:08:25;;;;;;;13.05;5.22;;;;;;;10.98;73.35;99124.66;1719286;83;21463;-68
2021/01/25 07:10:59;;;;;;;17.70;5.12;;;;;;;11.00;73.04;99113.61;1720615;83;21599;-68
2021/01/25 07:13:31;;;;;;;18.37;4.80;;;;;;;11.06;72.92;99123.06;1716890;83;21335;-69
2021/01/25 07:15:59;;;;;;;14.58;5.72;;;;;;;11.11;72.62;99118.50;1718073;83;21252;-68
2021/01/25 07:18:29;;;;;;;19.12;5.95;;;;;;;11.15;72.34;99132.81;1723497;83;21007;-68
2021/01/25 07:20:58;;;;;;;16.30;5.37;;;;;;;11.24;72.07;99124.20;1718080;83;21160;-68
2021/01/25 07:23:27;;;;;;;19.10;7.47;;;;;;;11.29;72.08;99119.63;1728305;82;21422;-68
2021/01/25 07:26:01;;;;;;;15.03;6.00;;;;;;;11.27;71.87;99113.55;1725113;83;21513;-69
2021/01/25 07:28:30;;;;;;;14.87;6.08;;;;;;;11.22;71.82;99112.41;1724740;83;21038;-68
2021/01/25 07:30:59;;;;;;;21.77;6.70;;;;;;;11.32;71.74;99108.98;1719304;82;21155;-69
2021/01/25 07:33:27;;;;;;;13.93;6.30;;;;;;;11.36;71.60;99112.36;1738641;82;21176;-69
2021/01/25 07:35:55;;;;;;;16.65;6.08;;;;;;;11.35;71.72;99114.59;1724401;83;21138;-68
2021/01/25 07:38:24;;;;;;;11.33;5.85;;;;;;;11.45;71.50;99102.81;1724334;82;21074;-69
2021/01/25 07:40:52;;;;;;;14.07;4.75;;;;;;;11.44;71.18;99095.82;1720388;83;21161;-68
2021/01/25 07:43:20;;;;;;;14.87;5.50;;;;;;;11.49;71.12;99098.27;1721293;83;21072;-70
2021/01/25 07:45:51;;;;;;;18.42;5.75;;;;;;;11.46;70.78;99088.72;1727331;83;21428;-67
2021/01/25 07:48:18;;;;;;;21.33;6.07;;;;;;;11.53;70.99;99084.08;1724998;83;21035;-69
2021/01/25 07:50:54;;;;;;;22.13;5.60;;;;;;;11.48;70.72;99080.78;1721645;83;21120;-69
2021/01/25 07:53:22;;;;;;;12.82;5.12;;;;;;;11.45;70.61;99087.88;1687173;85;21062;-69
2021/01/25 07:55:50;;;;;;;13.95;5.42;;;;;;;11.50;70.77;99073.20;1707632;83;21259;-68
2021/01/25 07:58:19;;;;;;;12.25;5.15;;;;;;;11.54;70.54;99079.20;1722159;82;21212;-68
2021/01/25 08:00:46;;;;;;;18.17;5.62;;;;;;;11.49;70.22;99069.30;1693391;84;21118;-68
2021/01/25 08:03:22;;;;;;;14.18;4.75;;;;;;;11.51;70.20;99078.00;1692920;85;21225;-69
2021/01/25 08:05:55;;;;;;;12.13;5.25;;;;;;;11.53;69.74;99074.85;1692592;84;21277;-68
2021/01/25 08:08:23;;;;;;;13.58;4.65;;;;;;;11.61;69.66;99062.25;1672635;86;21067;-68
2021/01/25 08:10:53;;;;;;;16.87;5.92;;;;;;;11.68;69.41;99069.48;1673400;85;21162;-68
2021/01/25 08:13:31;;;;;;;15.50;5.50;;;;;;;11.61;69.67;99059.62;1687285;83;21083;-68
2021/01/25 08:16:15;;;;;;;20.02;6.28;;;;;;;11.67;69.68;99056.75;1684571;84;21518;-70
2021/01/25 08:18:54;;;;;;;15.05;4.97;;;;;;;11.68;69.72;99049.25;1675495;84;21210;-68
2021/01/25 08:21:32;;;;;;;16.45;5.22;;;;;;;11.72;69.62;99051.30;1697002;84;21144;-68
2021/01/25 08:24:01;;;;;;;16.57;6.15;;;;;;;11.62;69.36;99050.80;1669049;85;21490;-66
2021/01/25 08:26:29;;;;;;;23.55;6.10;;;;;;;11.80;69.06;99047.91;1658903;85;21105;-68
2021/01/25 08:29:02;;;;;;;16.67;5.67;;;;;;;11.91;68.94;99038.29;1675415;86;21049;-69
2021/01/25 08:31:37;;;;;;;16.10;5.83;;;;;;;11.96;68.75;99044.69;1674863;86;21227;-69
2021/01/25 08:34:18;;;;;;;20.43;5.62;;;;;;;11.89;69.01;99040.97;1675220;86;20998;-68
2021/01/25 08:37:09;;;;;;;14.50;5.22;;;;;;;11.95;68.72;99042.97;1679724;84;21098;-67
2021/01/25 08:39:43;;;;;;;15.23;5.37;;;;;;;11.98;68.82;99048.13;1681562;84;21103;-67
2021/01/25 08:42:19;;;;;;;13.88;5.30;;;;;;;11.97;68.97;99048.56;1662611;86;21142;-67
2021/01/25 08:44:57;;;;;;;15.95;6.05;;;;;;;12.06;68.91;99039.48;1661468;86;21135;-67
2021/01/25 08:47:30;;;;;;;20.12;5.30;;;;;;;12.02;68.95;99036.57;1668909;85;21071;-68
2021/01/25 08:49:58;;;;;;;19.95;5.67;;;;;;;12.06;69.01;99034.21;1744278;82;21565;-68
2021/01/25 08:52:40;;;;;;;12.25;5.83;;;;;;;12.05;69.13;99030.70;1743996;82;21055;-67
2021/01/25 08:55:31;;;;;;;28.23;6.42;;;;;;;11.99;69.19;99032.70;1723521;82;21126;-68
2021/01/25 08:57:59;;;;;;;19.75;6.58;;;;;;;12.05;69.15;99025.91;1744038;82;21055;-67
2021/01/25 09:00:33;;;;;;;17.20;6.30;;;;;;;12.06;69.06;99028.94;1744004;82;21123;-67
2021/01/25 09:03:04;;;;;;;15.63;6.08;;;;;;;12.00;69.14;99015.52;1718156;83;21106;-70
2021/01/25 09:05:32;;;;;;;17.50;6.28;;;;;;;12.05;69.09;99012.24;1715382;83;21258;-70
2021/01/25 09:08:00;;;;;;;18.45;5.65;;;;;;;12.09;69.13;99015.63;1718797;83;21203;-68
2021/01/25 09:10:30;;;;;;;16.32;5.92;;;;;;;12.11;68.73;99007.20;1702886;82;21562;-68
2021/01/25 09:12:58;;;;;;;18.92;7.37;;;;;;;12.11;68.73;99007.20;1722690;82;21492;-69
2021/01/25 09:15:27;;;;;;;21.62;7.72;;;;;;;12.19;68.76;99002.92;1726138;82;21150;-69
2021/01/25 09:17:56;;;;;;;13.00;5.65;;;;;;;12.05;68.85;99005.65;1726848;82;21169;-68
2021/01/25 09:20:24;;;;;;;13.58;5.40;;;;;;;12.10;68.68;99010.76;1728850;83;21119;-68
2021/01/25 09:22:53;;;;;;;19.98;6.47;;;;;;;12.08;68.58;98986.66;1726172;83;21644;-68
2021/01/25 09:25:22;;;;;;;19.00;6.40;;;;;;;12.09;68.48;98989.26;1727359;82;21117;-69
2021/01/25 09:27:50;;;;;;;17.10;6.53;;;;;;;12.08;68.48;98995.45;1727737;82;21047;-67
2021/01/25 09:30:19;;;;;;;17.15;5.45;;;;;;;12.10;68.34;98988.78;1727995;82;21790;-68
2021/01/25 09:32:47;;;;;;;13.08;5.62;;;;;;;12.01;68.65;98980.32;1707473;83;21212;-67
2021/01/25 09:35:18;;;;;;;15.68;5.65;;;;;;;12.01;68.61;98974.20;1741598;82;21260;-68
2021/01/25 09:37:46;;;;;;;18.85;6.10;;;;;;;12.02;68.48;98968.85;1690882;84;21519;-67
2021/01/25 09:40:19;;;;;;;20.02;5.97;;;;;;;11.98;68.56;98975.61;1714894;82;21172;-69
2021/01/25 09:42:47;;;;;;;15.43;5.90;;;;;;;12.02;68.58;98964.05;1699893;83;21466;-67
2021/01/25 09:45:17;;;;;;;18.73;7.80;;;;;;;11.98;68.54;98966.38;1733312;81;21074;-68
2021/01/25 09:47:45;;;;;;;22.60;6.75;;;;;;;11.98;68.61;98953.20;1742851;82;21513;-68
2021/01/25 09:50:15;;;;;;;18.32;7.05;;;;;;;11.98;68.64;98942.17;1741270;81;21541;-68
2021/01/25 09:52:45;;;;;;;14.33;5.50;;;;;;;11.94;68.65;98944.53;1747449;81;21173;-69
2021/01/25 09:55:15;;;;;;;15.65;5.62;;;;;;;12.00;68.65;98947.44;1740774;81;21691;-67
2021/01/25 09:57:43;;;;;;;18.45;5.78;;;;;;;11.89;68.75;98932.03;1736346;82;21521;-68
2021/01/25 10:00:14;;;;;;;14.60;6.05;;;;;;;11.89;68.99;98935.51;1698150;83;21274;-68
2021/01/25 10:02:42;;;;;;;13.75;6.25;;;;;;;11.92;68.97;98927.95;1740239;82;21058;-67
2021/01/25 10:05:12;;;;;;;12.88;6.25;;;;;;;11.93;68.83;98927.48;1738838;82;21101;-68
2021/01/25 10:07:40;;;;;;;16.62;5.83;;;;;;;11.86;69.14;98925.09;1735365;82;21114;-69
2021/01/25 10:10:12;;;;;;;20.25;6.78;;;;;;;11.89;69.14;98927.60;1736217;82;21271;-68
2021/01/25 10:12:39;;;;;;;16.87;5.85;;;;;;;11.81;69.63;98916.50;1742296;82;21075;-69
2021/01/25 10:15:09;;;;;;;15.98;6.58;;;;;;;11.66;70.76;98910.09;1731994;83;21265;-69
2021/01/25 10:17:38;;;;;;;14.13;5.90;;;;;;;11.63;70.85;98909.36;1725208;83;21097;-70
2021/01/25 10:20:07;;;;;;;16.73;5.33;;;;;;;11.62;70.90;98905.01;1739108;82;21109;-69
2021/01/25 10:22:36;;;;;;;15.93;5.53;;;;;;;11.58;71.02;98902.94;1753976;82;21062;-69
2021/01/25 10:25:07;;;;;;;19.20;6.40;;;;;;;11.53;71.29;98899.19;1735316;82;21247;-71
2021/01/25 10:27:36;;;;;;;19.60;7.72;;;;;;;11.58;71.13;98892.40;1748932;81;21065;-71
2021/01/25 10:30:08;;;;;;;18.30;7.42;;;;;;;11.49;71.72;98890.13;1742182;82;21509;-69
2021/01/25 10:32:36;;;;;;;23.00;7.03;;;;;;;11.50;71.77;98888.77;1738412;81;21200;-71
2021/01/25 10:35:08;;;;;;;15.72;6.55;;;;;;;11.49;71.68;98889.69;1742128;82;21233;-69
2021/01/25 10:37:37;;;;;;;;;;;;;;;11.41;71.93;98864.97;1743869;81;21078;-69
2021/01/25 10:40:06;;;;;;;19.12;6.60;;;;;;;11.43;71.97;98867.09;1733052;82;20198;-70
2021/01/25 10:42:34;;;;;;;20.80;6.70;;;;;;;11.45;72.02;98863.93;1729994;82;21138;-70
2021/01/25 10:45:02;;;;;;;19.10;6.40;;;;;;;11.53;71.82;98858.34;1728985;82;21267;-69
2021/01/25 10:47:30;;;;;;;16.40;5.87;;;;;;;11.58;71.76;98862.09;1727335;82;21223;-69
2021/01/25 10:49:59;;;;;;;17.85;5.62;;;;;;;11.59;71.70;98851.51;1691472;84;21192;-69
2021/01/25 10:52:27;;;;;;;21.25;6.67;;;;;;;11.62;71.71;98845.72;1677257;84;21242;-68
2021/01/25 10:54:54;;;;;;;20.45;6.55;;;;;;;11.62;71.70;98846.56;1728158;82;21276;-69
2021/01/25 10:57:23;;;;;;;15.35;5.72;;;;;;;11.75;71.36;98845.58;1695160;84;21258;-69
2021/01/25 10:59:52;;;;;;;13.00;5.65;;;;;;;11.79;71.05;98838.42;1723161;82;21260;-69
2021/01/25 11:02:20;;;;;;;12.78;4.80;;;;;;;11.74;71.15;98839.47;1707481;82;21219;-69
2021/01/25 11:04:48;;;;;;;15.68;5.33;;;;;;;11.58;71.87;98848.48;1692421;84;21150;-71
2021/01/25 11:07:16;;;;;;;14.73;5.83;;;;;;;11.51;72.15;98824.61;1671249;85;21276;-69
2021/01/25 11:09:44;;;;;;;15.32;5.58;;;;;;;11.57;72.31;98815.58;1694325;83;21136;-69
2021/01/25 11:12:12;;;;;;;15.90;5.22;;;;;;;11.63;71.94;98827.19;1728785;82;21106;-70
2021/01/25 11:14:40;;;;;;;16.42;4.95;;;;;;;11.59;72.18;98822.52;1691114;85;21268;-70
2021/01/25 11:17:08;;;;;;;18.55;5.62;;;;;;;11.57;72.26;98819.53;1676279;85;21280;-69
2021/01/25 11:19:36;;;;;;;18.62;5.78;;;;;;;11.57;72.46;98817.77;1676860;85;21135;-71
2021/01/25 11:22:04;;;;;;;13.88;4.58;;;;;;;11.60;72.31;98817.65;1677192;85;21219;-68
2021/01/25 11:24:32;;;;;;;14.07;4.60;;;;;;;11.53;72.62;98813.55;1677134;85;21273;-68
2021/01/25 11:27:04;;;;;;;22.25;5.47;;;;;;;11.53;72.78;98819.27;1674880;85;21269;-70
2021/01/25 11:29:30;;;;;;;13.72;4.87;;;;;;;11.50;72.90;98808.41;1675287;85;21132;-71
2021/01/25 11:32:02;;;;;;;14.20;5.20;;;;;;;11.45;73.27;98820.91;1680044;84;21095;-70
2021/01/25 11:34:30;;;;;;;18.77;5.45;;;;;;;11.50;72.96;98803.58;1679659;84;21136;-69
2021/01/25 11:36:58;;;;;;;14.58;5.37;;;;;;;11.49;73.04;98794.83;1678224;85;21555;-69
2021/01/25 11:39:28;;;;;;;17.52;5.72;;;;;;;11.37;73.61;98791.38;1674963;84;21642;-72
2021/01/25 11:41:56;;;;;;;18.90;4.83;;;;;;;11.39;73.64;98794.81;1671111;85;21131;-70
2021/01/25 11:44:24;;;;;;;14.18;5.15;;;;;;;11.42;73.48;98802.59;1671508;85;21488;-68